sensor_id;sensor_type;location;lat;lon;timestamp;P1;durP1;ratioP1;P2;durP2;ratioP2
20482;SDS011;10400;53.198;6.592;2023-07-31T00:00:26;4.70;;;3.50;;
20482;SDS011;10400;53.198;6.592;2023-07-31T00:02:52;5.18;;;3.58;;
20482;SDS011;10400;53.198;6.592;2023-07-31T00:05:19;5.18;;;3.90;;
20482;SDS011;10400;53.198;6.592;2023-07-31T00:07:44;4.88;;;3.70;;
20482;SDS011;10400;53.198;6.592;2023-07-31T00:10:10;8.38;;;4.00;;
20482;SDS011;10400;53.198;6.592;2023-07-31T00:12:35;6.85;;;3.83;;
20482;SDS011;10400;53.198;6.592;2023-07-31T00:15:02;6.55;;;3.90;;
20482;SDS011;10400;53.198;6.592;2023-07-31T00:17:29;4.43;;;3.40;;
20482;SDS011;10400;53.198;6.592;2023-07-31T00:19:55;5.05;;;3.60;;
20482;SDS011;10400;53.198;6.592;2023-07-31T00:22:20;4.47;;;3.45;;
20482;SDS011;10400;53.198;6.592;2023-07-31T00:24:46;3.60;;;3.00;;
20482;SDS011;10400;53.198;6.592;2023-07-31T00:27:12;3.83;;;3.25;;
20482;SDS011;10400;53.198;6.592;2023-07-31T00:29:37;3.70;;;2.53;;
20482;SDS011;10400;53.198;6.592;2023-07-31T00:32:03;7.45;;;2.85;;
20482;SDS011;10400;53.198;6.592;2023-07-31T00:34:29;4.45;;;2.67;;
20482;SDS011;10400;53.198;6.592;2023-07-31T00:36:55;3.35;;;2.47;;
20482;SDS011;10400;53.198;6.592;2023-07-31T00:39:20;4.50;;;2.53;;
20482;SDS011;10400;53.198;6.592;2023-07-31T00:41:46;3.15;;;2.85;;
20482;SDS011;10400;53.198;6.592;2023-07-31T00:44:11;4.50;;;2.35;;
20482;SDS011;10400;53.198;6.592;2023-07-31T00:46:37;4.40;;;2.72;;
20482;SDS011;10400;53.198;6.592;2023-07-31T00:49:03;6.40;;;2.75;;
20482;SDS011;10400;53.198;6.592;2023-07-31T00:51:29;3.15;;;2.78;;
20482;SDS011;10400;53.198;6.592;2023-07-31T00:53:55;4.85;;;2.97;;
20482;SDS011;10400;53.198;6.592;2023-07-31T00:56:21;3.22;;;2.90;;
20482;SDS011;10400;53.198;6.592;2023-07-31T00:58:47;4.45;;;3.00;;
20482;SDS011;10400;53.198;6.592;2023-07-31T01:01:12;3.28;;;2.75;;
20482;SDS011;10400;53.198;6.592;2023-07-31T01:03:38;4.03;;;2.90;;
20482;SDS011;10400;53.198;6.592;2023-07-31T01:08:42;8.13;;;3.30;;
20482;SDS011;10400;53.198;6.592;2023-07-31T01:11:17;4.70;;;2.55;;
20482;SDS011;10400;53.198;6.592;2023-07-31T01:13:50;5.68;;;2.95;;
20482;SDS011;10400;53.198;6.592;2023-07-31T01:16:16;3.13;;;2.58;;
20482;SDS011;10400;53.198;6.592;2023-07-31T01:18:42;4.40;;;2.80;;
20482;SDS011;10400;53.198;6.592;2023-07-31T01:24:21;3.17;;;2.65;;
20482;SDS011;10400;53.198;6.592;2023-07-31T01:27:06;3.95;;;2.67;;
20482;SDS011;10400;53.198;6.592;2023-07-31T01:29:40;3.97;;;2.60;;
20482;SDS011;10400;53.198;6.592;2023-07-31T01:32:14;3.92;;;2.45;;
20482;SDS011;10400;53.198;6.592;2023-07-31T01:34:42;4.47;;;2.60;;
20482;SDS011;10400;53.198;6.592;2023-07-31T01:37:09;5.07;;;2.95;;
20482;SDS011;10400;53.198;6.592;2023-07-31T01:39:34;2.80;;;2.50;;
20482;SDS011;10400;53.198;6.592;2023-07-31T01:42:00;2.60;;;2.40;;
20482;SDS011;10400;53.198;6.592;2023-07-31T01:44:26;2.65;;;2.28;;
20482;SDS011;10400;53.198;6.592;2023-07-31T01:46:53;3.63;;;2.60;;
20482;SDS011;10400;53.198;6.592;2023-07-31T01:49:19;2.80;;;2.35;;
20482;SDS011;10400;53.198;6.592;2023-07-31T01:51:44;3.95;;;2.33;;
20482;SDS011;10400;53.198;6.592;2023-07-31T01:54:10;2.03;;;1.80;;
20482;SDS011;10400;53.198;6.592;2023-07-31T01:56:36;3.63;;;2.20;;
20482;SDS011;10400;53.198;6.592;2023-07-31T01:59:01;3.15;;;2.20;;
20482;SDS011;10400;53.198;6.592;2023-07-31T02:01:27;4.38;;;2.13;;
20482;SDS011;10400;53.198;6.592;2023-07-31T02:03:53;2.60;;;1.45;;
20482;SDS011;10400;53.198;6.592;2023-07-31T02:06:19;4.22;;;1.77;;
20482;SDS011;10400;53.198;6.592;2023-07-31T02:08:44;1.80;;;1.60;;
20482;SDS011;10400;53.198;6.592;2023-07-31T02:11:10;1.73;;;1.60;;
20482;SDS011;10400;53.198;6.592;2023-07-31T02:13:36;2.05;;;1.40;;
20482;SDS011;10400;53.198;6.592;2023-07-31T02:16:01;1.75;;;1.23;;
20482;SDS011;10400;53.198;6.592;2023-07-31T02:18:27;1.80;;;1.15;;
20482;SDS011;10400;53.198;6.592;2023-07-31T02:20:53;1.90;;;1.02;;
20482;SDS011;10400;53.198;6.592;2023-07-31T02:23:18;2.20;;;1.10;;
20482;SDS011;10400;53.198;6.592;2023-07-31T02:25:44;1.40;;;1.00;;
20482;SDS011;10400;53.198;6.592;2023-07-31T02:28:10;0.93;;;0.90;;
20482;SDS011;10400;53.198;6.592;2023-07-31T02:30:36;1.45;;;1.00;;
20482;SDS011;10400;53.198;6.592;2023-07-31T02:33:02;1.00;;;0.95;;
20482;SDS011;10400;53.198;6.592;2023-07-31T02:35:27;2.22;;;1.20;;
20482;SDS011;10400;53.198;6.592;2023-07-31T02:37:53;1.00;;;0.90;;
20482;SDS011;10400;53.198;6.592;2023-07-31T02:40:19;3.20;;;1.02;;
20482;SDS011;10400;53.198;6.592;2023-07-31T02:42:44;1.48;;;1.02;;
20482;SDS011;10400;53.198;6.592;2023-07-31T02:45:10;2.47;;;1.27;;
20482;SDS011;10400;53.198;6.592;2023-07-31T02:47:36;2.13;;;0.95;;
20482;SDS011;10400;53.198;6.592;2023-07-31T02:50:02;1.48;;;0.93;;
20482;SDS011;10400;53.198;6.592;2023-07-31T02:52:28;2.63;;;0.90;;
20482;SDS011;10400;53.198;6.592;2023-07-31T02:54:54;3.35;;;1.10;;
20482;SDS011;10400;53.198;6.592;2023-07-31T02:57:20;2.25;;;1.10;;
20482;SDS011;10400;53.198;6.592;2023-07-31T02:59:45;1.10;;;1.00;;
20482;SDS011;10400;53.198;6.592;2023-07-31T03:02:11;1.92;;;1.08;;
20482;SDS011;10400;53.198;6.592;2023-07-31T03:04:38;1.30;;;0.98;;
20482;SDS011;10400;53.198;6.592;2023-07-31T03:07:03;2.25;;;0.90;;
20482;SDS011;10400;53.198;6.592;2023-07-31T03:09:29;1.20;;;0.90;;
20482;SDS011;10400;53.198;6.592;2023-07-31T03:11:55;2.10;;;1.00;;
20482;SDS011;10400;53.198;6.592;2023-07-31T03:14:21;2.85;;;1.05;;
20482;SDS011;10400;53.198;6.592;2023-07-31T03:16:46;1.55;;;1.00;;
20482;SDS011;10400;53.198;6.592;2023-07-31T03:19:13;2.63;;;1.40;;
20482;SDS011;10400;53.198;6.592;2023-07-31T03:21:39;1.10;;;1.00;;
20482;SDS011;10400;53.198;6.592;2023-07-31T03:24:05;0.68;;;0.60;;
20482;SDS011;10400;53.198;6.592;2023-07-31T03:26:31;1.20;;;0.85;;
20482;SDS011;10400;53.198;6.592;2023-07-31T03:28:57;2.40;;;0.82;;
20482;SDS011;10400;53.198;6.592;2023-07-31T03:31:23;2.35;;;0.70;;
20482;SDS011;10400;53.198;6.592;2023-07-31T03:33:49;1.08;;;0.85;;
20482;SDS011;10400;53.198;6.592;2023-07-31T03:36:14;0.98;;;0.70;;
20482;SDS011;10400;53.198;6.592;2023-07-31T03:38:40;4.28;;;1.05;;
20482;SDS011;10400;53.198;6.592;2023-07-31T03:41:05;2.65;;;0.85;;
20482;SDS011;10400;53.198;6.592;2023-07-31T03:43:31;2.28;;;1.00;;
20482;SDS011;10400;53.198;6.592;2023-07-31T03:45:59;1.38;;;1.05;;
20482;SDS011;10400;53.198;6.592;2023-07-31T03:48:25;2.17;;;1.13;;
20482;SDS011;10400;53.198;6.592;2023-07-31T03:50:51;1.63;;;0.90;;
20482;SDS011;10400;53.198;6.592;2023-07-31T03:53:17;1.70;;;0.95;;
20482;SDS011;10400;53.198;6.592;2023-07-31T03:55:42;1.65;;;0.90;;
20482;SDS011;10400;53.198;6.592;2023-07-31T03:58:08;3.33;;;0.80;;
20482;SDS011;10400;53.198;6.592;2023-07-31T04:00:34;1.73;;;1.20;;
20482;SDS011;10400;53.198;6.592;2023-07-31T04:02:59;1.92;;;1.02;;
20482;SDS011;10400;53.198;6.592;2023-07-31T04:05:25;4.38;;;1.17;;
20482;SDS011;10400;53.198;6.592;2023-07-31T04:07:51;1.63;;;0.90;;
20482;SDS011;10400;53.198;6.592;2023-07-31T04:10:16;2.38;;;0.90;;
20482;SDS011;10400;53.198;6.592;2023-07-31T04:12:42;2.05;;;1.27;;
20482;SDS011;10400;53.198;6.592;2023-07-31T04:15:08;3.25;;;0.90;;
20482;SDS011;10400;53.198;6.592;2023-07-31T04:17:33;2.80;;;1.20;;
20482;SDS011;10400;53.198;6.592;2023-07-31T04:19:59;1.05;;;0.95;;
20482;SDS011;10400;53.198;6.592;2023-07-31T04:22:25;1.45;;;0.90;;
20482;SDS011;10400;53.198;6.592;2023-07-31T04:24:50;1.05;;;0.90;;
20482;SDS011;10400;53.198;6.592;2023-07-31T04:27:16;2.17;;;1.02;;
20482;SDS011;10400;53.198;6.592;2023-07-31T04:29:42;1.35;;;1.02;;
20482;SDS011;10400;53.198;6.592;2023-07-31T04:32:09;1.67;;;1.13;;
20482;SDS011;10400;53.198;6.592;2023-07-31T04:34:35;3.40;;;1.17;;
20482;SDS011;10400;53.198;6.592;2023-07-31T04:37:00;2.13;;;0.88;;
20482;SDS011;10400;53.198;6.592;2023-07-31T04:39:26;1.52;;;0.85;;
20482;SDS011;10400;53.198;6.592;2023-07-31T04:41:51;3.10;;;0.88;;
20482;SDS011;10400;53.198;6.592;2023-07-31T04:44:17;1.30;;;0.90;;
20482;SDS011;10400;53.198;6.592;2023-07-31T04:46:43;1.63;;;0.90;;
20482;SDS011;10400;53.198;6.592;2023-07-31T04:49:08;2.08;;;0.82;;
20482;SDS011;10400;53.198;6.592;2023-07-31T04:51:35;1.77;;;0.90;;
20482;SDS011;10400;53.198;6.592;2023-07-31T04:54:01;2.08;;;0.90;;
20482;SDS011;10400;53.198;6.592;2023-07-31T04:56:26;2.17;;;1.20;;
20482;SDS011;10400;53.198;6.592;2023-07-31T04:58:52;0.70;;;0.60;;
20482;SDS011;10400;53.198;6.592;2023-07-31T05:01:18;2.55;;;0.90;;
20482;SDS011;10400;53.198;6.592;2023-07-31T05:03:43;1.23;;;0.70;;
20482;SDS011;10400;53.198;6.592;2023-07-31T05:06:09;1.08;;;0.88;;
20482;SDS011;10400;53.198;6.592;2023-07-31T05:08:35;1.38;;;0.60;;
20482;SDS011;10400;53.198;6.592;2023-07-31T05:11:00;3.67;;;0.88;;
20482;SDS011;10400;53.198;6.592;2023-07-31T05:13:27;2.63;;;0.80;;
20482;SDS011;10400;53.198;6.592;2023-07-31T05:15:52;1.48;;;0.50;;
20482;SDS011;10400;53.198;6.592;2023-07-31T05:18:19;1.10;;;0.77;;
20482;SDS011;10400;53.198;6.592;2023-07-31T05:20:44;1.55;;;0.68;;
20482;SDS011;10400;53.198;6.592;2023-07-31T05:23:10;0.75;;;0.45;;
20482;SDS011;10400;53.198;6.592;2023-07-31T05:25:35;1.30;;;0.40;;
20482;SDS011;10400;53.198;6.592;2023-07-31T05:28:01;0.77;;;0.50;;
20482;SDS011;10400;53.198;6.592;2023-07-31T05:30:27;0.50;;;0.50;;
20482;SDS011;10400;53.198;6.592;2023-07-31T05:32:55;1.73;;;0.73;;
20482;SDS011;10400;53.198;6.592;2023-07-31T05:35:21;1.08;;;0.60;;
20482;SDS011;10400;53.198;6.592;2023-07-31T05:37:47;1.30;;;0.80;;
20482;SDS011;10400;53.198;6.592;2023-07-31T05:40:12;1.60;;;0.60;;
20482;SDS011;10400;53.198;6.592;2023-07-31T05:42:39;1.30;;;0.60;;
20482;SDS011;10400;53.198;6.592;2023-07-31T05:45:05;0.73;;;0.70;;
20482;SDS011;10400;53.198;6.592;2023-07-31T05:47:32;1.52;;;0.80;;
20482;SDS011;10400;53.198;6.592;2023-07-31T05:49:57;1.77;;;0.95;;
20482;SDS011;10400;53.198;6.592;2023-07-31T05:52:23;1.48;;;0.90;;
20482;SDS011;10400;53.198;6.592;2023-07-31T05:54:49;3.88;;;0.98;;
20482;SDS011;10400;53.198;6.592;2023-07-31T05:57:15;2.50;;;1.00;;
20482;SDS011;10400;53.198;6.592;2023-07-31T05:59:41;2.85;;;1.10;;
20482;SDS011;10400;53.198;6.592;2023-07-31T06:02:07;1.40;;;1.00;;
20482;SDS011;10400;53.198;6.592;2023-07-31T06:04:32;4.10;;;1.10;;
20482;SDS011;10400;53.198;6.592;2023-07-31T06:06:58;2.33;;;1.27;;
20482;SDS011;10400;53.198;6.592;2023-07-31T06:09:24;1.60;;;1.13;;
20482;SDS011;10400;53.198;6.592;2023-07-31T06:11:50;2.42;;;1.13;;
20482;SDS011;10400;53.198;6.592;2023-07-31T06:14:16;2.78;;;1.60;;
20482;SDS011;10400;53.198;6.592;2023-07-31T06:16:42;2.25;;;1.27;;
20482;SDS011;10400;53.198;6.592;2023-07-31T06:19:09;2.78;;;1.42;;
20482;SDS011;10400;53.198;6.592;2023-07-31T06:21:35;4.28;;;2.00;;
20482;SDS011;10400;53.198;6.592;2023-07-31T06:24:02;5.82;;;2.20;;
20482;SDS011;10400;53.198;6.592;2023-07-31T06:26:29;4.82;;;2.30;;
20482;SDS011;10400;53.198;6.592;2023-07-31T06:28:54;4.20;;;2.30;;
20482;SDS011;10400;53.198;6.592;2023-07-31T06:31:20;7.18;;;2.70;;
20482;SDS011;10400;53.198;6.592;2023-07-31T06:33:48;7.63;;;2.67;;
20482;SDS011;10400;53.198;6.592;2023-07-31T06:36:14;9.18;;;3.03;;
20482;SDS011;10400;53.198;6.592;2023-07-31T06:38:40;5.40;;;3.30;;
20482;SDS011;10400;53.198;6.592;2023-07-31T06:41:05;10.88;;;4.07;;
20482;SDS011;10400;53.198;6.592;2023-07-31T06:43:31;15.50;;;4.88;;
20482;SDS011;10400;53.198;6.592;2023-07-31T06:45:57;13.02;;;4.60;;
20482;SDS011;10400;53.198;6.592;2023-07-31T06:48:22;12.55;;;4.75;;
20482;SDS011;10400;53.198;6.592;2023-07-31T06:50:48;19.00;;;5.38;;
20482;SDS011;10400;53.198;6.592;2023-07-31T06:53:14;18.10;;;5.45;;
20482;SDS011;10400;53.198;6.592;2023-07-31T06:55:39;18.60;;;5.82;;
20482;SDS011;10400;53.198;6.592;2023-07-31T06:58:05;17.50;;;5.30;;
20482;SDS011;10400;53.198;6.592;2023-07-31T07:00:31;17.55;;;5.80;;
20482;SDS011;10400;53.198;6.592;2023-07-31T07:02:57;20.45;;;5.65;;
20482;SDS011;10400;53.198;6.592;2023-07-31T07:05:23;24.83;;;6.32;;
20482;SDS011;10400;53.198;6.592;2023-07-31T07:07:49;18.83;;;6.38;;
20482;SDS011;10400;53.198;6.592;2023-07-31T07:10:16;15.68;;;5.82;;
20482;SDS011;10400;53.198;6.592;2023-07-31T07:12:41;20.25;;;5.88;;
20482;SDS011;10400;53.198;6.592;2023-07-31T07:15:07;21.05;;;6.30;;
20482;SDS011;10400;53.198;6.592;2023-07-31T07:17:33;20.65;;;6.07;;
20482;SDS011;10400;53.198;6.592;2023-07-31T07:19:59;18.45;;;6.07;;
20482;SDS011;10400;53.198;6.592;2023-07-31T07:22:26;21.70;;;6.90;;
20482;SDS011;10400;53.198;6.592;2023-07-31T07:24:52;20.67;;;6.82;;
20482;SDS011;10400;53.198;6.592;2023-07-31T07:27:18;21.02;;;6.30;;
20482;SDS011;10400;53.198;6.592;2023-07-31T07:29:45;22.30;;;6.53;;
20482;SDS011;10400;53.198;6.592;2023-07-31T07:32:11;22.95;;;6.80;;
20482;SDS011;10400;53.198;6.592;2023-07-31T07:34:37;18.30;;;6.50;;
20482;SDS011;10400;53.198;6.592;2023-07-31T07:37:03;17.60;;;6.93;;
20482;SDS011;10400;53.198;6.592;2023-07-31T07:39:29;17.30;;;6.35;;
20482;SDS011;10400;53.198;6.592;2023-07-31T07:41:55;17.35;;;6.22;;
20482;SDS011;10400;53.198;6.592;2023-07-31T07:44:20;14.77;;;6.47;;
20482;SDS011;10400;53.198;6.592;2023-07-31T07:46:46;18.15;;;5.78;;
20482;SDS011;10400;53.198;6.592;2023-07-31T07:49:12;12.50;;;4.43;;
20482;SDS011;10400;53.198;6.592;2023-07-31T07:51:38;7.80;;;3.30;;
20482;SDS011;10400;53.198;6.592;2023-07-31T07:54:03;4.88;;;2.28;;
20482;SDS011;10400;53.198;6.592;2023-07-31T07:56:29;6.47;;;2.10;;
20482;SDS011;10400;53.198;6.592;2023-07-31T07:58:55;3.38;;;1.95;;
20482;SDS011;10400;53.198;6.592;2023-07-31T08:01:20;6.15;;;2.30;;
20482;SDS011;10400;53.198;6.592;2023-07-31T08:03:47;5.63;;;1.90;;
20482;SDS011;10400;53.198;6.592;2023-07-31T08:06:13;3.58;;;1.88;;
20482;SDS011;10400;53.198;6.592;2023-07-31T08:08:39;3.47;;;1.42;;
20482;SDS011;10400;53.198;6.592;2023-07-31T08:11:05;2.30;;;1.50;;
20482;SDS011;10400;53.198;6.592;2023-07-31T08:13:31;3.42;;;1.50;;
20482;SDS011;10400;53.198;6.592;2023-07-31T08:15:57;4.25;;;1.70;;
20482;SDS011;10400;53.198;6.592;2023-07-31T08:18:22;2.72;;;1.38;;
20482;SDS011;10400;53.198;6.592;2023-07-31T08:20:48;2.30;;;1.35;;
20482;SDS011;10400;53.198;6.592;2023-07-31T08:23:14;2.35;;;1.50;;
20482;SDS011;10400;53.198;6.592;2023-07-31T08:25:39;2.47;;;1.50;;
20482;SDS011;10400;53.198;6.592;2023-07-31T08:28:05;2.35;;;1.50;;
20482;SDS011;10400;53.198;6.592;2023-07-31T08:30:31;2.42;;;1.42;;
20482;SDS011;10400;53.198;6.592;2023-07-31T08:32:58;2.50;;;1.13;;
20482;SDS011;10400;53.198;6.592;2023-07-31T08:35:24;1.83;;;1.33;;
20482;SDS011;10400;53.198;6.592;2023-07-31T08:37:50;2.03;;;1.35;;
20482;SDS011;10400;53.198;6.592;2023-07-31T08:40:16;2.08;;;1.15;;
20482;SDS011;10400;53.198;6.592;2023-07-31T08:42:49;1.92;;;1.38;;
20482;SDS011;10400;53.198;6.592;2023-07-31T08:45:19;1.88;;;1.08;;
20482;SDS011;10400;53.198;6.592;2023-07-31T08:47:46;2.28;;;1.30;;
20482;SDS011;10400;53.198;6.592;2023-07-31T08:50:12;2.17;;;1.20;;
20482;SDS011;10400;53.198;6.592;2023-07-31T08:52:39;1.50;;;0.90;;
20482;SDS011;10400;53.198;6.592;2023-07-31T08:55:05;2.10;;;0.98;;
20482;SDS011;10400;53.198;6.592;2023-07-31T08:57:32;1.27;;;0.77;;
20482;SDS011;10400;53.198;6.592;2023-07-31T09:00:00;1.00;;;0.90;;
20482;SDS011;10400;53.198;6.592;2023-07-31T09:02:28;1.48;;;0.88;;
20482;SDS011;10400;53.198;6.592;2023-07-31T09:05:03;1.52;;;0.85;;
20482;SDS011;10400;53.198;6.592;2023-07-31T09:07:30;2.83;;;0.98;;
20482;SDS011;10400;53.198;6.592;2023-07-31T09:09:58;1.25;;;0.75;;
20482;SDS011;10400;53.198;6.592;2023-07-31T09:12:25;1.80;;;1.10;;
20482;SDS011;10400;53.198;6.592;2023-07-31T09:14:50;1.17;;;0.70;;
20482;SDS011;10400;53.198;6.592;2023-07-31T09:17:16;2.55;;;1.08;;
20482;SDS011;10400;53.198;6.592;2023-07-31T09:19:57;1.35;;;0.77;;
20482;SDS011;10400;53.198;6.592;2023-07-31T09:22:32;1.20;;;0.82;;
20482;SDS011;10400;53.198;6.592;2023-07-31T09:30:23;1.80;;;0.90;;
20482;SDS011;10400;53.198;6.592;2023-07-31T09:32:50;1.50;;;0.93;;
20482;SDS011;10400;53.198;6.592;2023-07-31T09:35:27;0.82;;;0.80;;
20482;SDS011;10400;53.198;6.592;2023-07-31T09:37:58;1.17;;;0.80;;
20482;SDS011;10400;53.198;6.592;2023-07-31T09:40:45;0.95;;;0.73;;
20482;SDS011;10400;53.198;6.592;2023-07-31T09:43:12;2.42;;;0.50;;
20482;SDS011;10400;53.198;6.592;2023-07-31T09:45:42;2.85;;;0.63;;
20482;SDS011;10400;53.198;6.592;2023-07-31T09:48:09;2.60;;;0.73;;
20482;SDS011;10400;53.198;6.592;2023-07-31T09:50:37;2.47;;;0.50;;
20482;SDS011;10400;53.198;6.592;2023-07-31T09:53:04;1.08;;;0.40;;
20482;SDS011;10400;53.198;6.592;2023-07-31T09:55:30;0.70;;;0.40;;
20482;SDS011;10400;53.198;6.592;2023-07-31T09:58:00;2.38;;;0.40;;
20482;SDS011;10400;53.198;6.592;2023-07-31T10:00:30;0.30;;;0.30;;
20482;SDS011;10400;53.198;6.592;2023-07-31T10:03:00;0.65;;;0.40;;
20482;SDS011;10400;53.198;6.592;2023-07-31T10:05:30;0.45;;;0.38;;
20482;SDS011;10400;53.198;6.592;2023-07-31T10:08:01;0.43;;;0.30;;
20482;SDS011;10400;53.198;6.592;2023-07-31T10:10:27;1.00;;;0.38;;
20482;SDS011;10400;53.198;6.592;2023-07-31T10:12:53;0.40;;;0.32;;
20482;SDS011;10400;53.198;6.592;2023-07-31T10:15:21;2.15;;;0.40;;
20482;SDS011;10400;53.198;6.592;2023-07-31T10:17:47;0.80;;;0.30;;
20482;SDS011;10400;53.198;6.592;2023-07-31T10:20:14;0.30;;;0.30;;
20482;SDS011;10400;53.198;6.592;2023-07-31T10:22:42;0.75;;;0.30;;
20482;SDS011;10400;53.198;6.592;2023-07-31T10:25:08;1.10;;;0.50;;
20482;SDS011;10400;53.198;6.592;2023-07-31T10:27:38;1.08;;;0.30;;
20482;SDS011;10400;53.198;6.592;2023-07-31T10:30:05;3.03;;;0.60;;
20482;SDS011;10400;53.198;6.592;2023-07-31T10:32:33;1.48;;;0.30;;
20482;SDS011;10400;53.198;6.592;2023-07-31T10:35:01;0.20;;;0.20;;
20482;SDS011;10400;53.198;6.592;2023-07-31T10:37:29;1.00;;;0.20;;
20482;SDS011;10400;53.198;6.592;2023-07-31T10:40:03;0.20;;;0.10;;
20482;SDS011;10400;53.198;6.592;2023-07-31T10:42:51;1.20;;;0.10;;
20482;SDS011;10400;53.198;6.592;2023-07-31T10:45:51;0.10;;;0.10;;
20482;SDS011;10400;53.198;6.592;2023-07-31T10:48:13;0.10;;;0.08;;
20482;SDS011;10400;53.198;6.592;2023-07-31T10:50:54;1.33;;;0.57;;
20482;SDS011;10400;53.198;6.592;2023-07-31T10:53:28;0.20;;;0.20;;
20482;SDS011;10400;53.198;6.592;2023-07-31T10:56:02;0.77;;;0.20;;
20482;SDS011;10400;53.198;6.592;2023-07-31T10:58:29;0.30;;;0.20;;
20482;SDS011;10400;53.198;6.592;2023-07-31T11:00:58;0.20;;;0.20;;
20482;SDS011;10400;53.198;6.592;2023-07-31T11:03:45;0.93;;;0.10;;
20482;SDS011;10400;53.198;6.592;2023-07-31T11:06:12;0.30;;;0.10;;
20482;SDS011;10400;53.198;6.592;2023-07-31T11:08:42;0.38;;;0.10;;
20482;SDS011;10400;53.198;6.592;2023-07-31T11:11:12;0.60;;;0.28;;
20482;SDS011;10400;53.198;6.592;2023-07-31T11:13:44;3.95;;;0.55;;
20482;SDS011;10400;53.198;6.592;2023-07-31T11:16:10;4.65;;;1.10;;
20482;SDS011;10400;53.198;6.592;2023-07-31T11:18:40;1.48;;;0.32;;
20482;SDS011;10400;53.198;6.592;2023-07-31T11:21:07;0.57;;;0.30;;
20482;SDS011;10400;53.198;6.592;2023-07-31T11:23:36;0.68;;;0.45;;
20482;SDS011;10400;53.198;6.592;2023-07-31T11:26:04;1.45;;;0.47;;
20482;SDS011;10400;53.198;6.592;2023-07-31T11:28:31;1.13;;;0.63;;
20482;SDS011;10400;53.198;6.592;2023-07-31T11:30:59;0.77;;;0.60;;
20482;SDS011;10400;53.198;6.592;2023-07-31T11:33:25;1.38;;;0.60;;
20482;SDS011;10400;53.198;6.592;2023-07-31T11:35:51;1.27;;;0.60;;
20482;SDS011;10400;53.198;6.592;2023-07-31T11:40:52;1.20;;;0.65;;
20482;SDS011;10400;53.198;6.592;2023-07-31T11:43:18;0.43;;;0.40;;
20482;SDS011;10400;53.198;6.592;2023-07-31T11:45:46;1.50;;;0.60;;
20482;SDS011;10400;53.198;6.592;2023-07-31T11:48:23;1.90;;;0.60;;
20482;SDS011;10400;53.198;6.592;2023-07-31T11:51:02;1.48;;;0.60;;
20482;SDS011;10400;53.198;6.592;2023-07-31T11:56:18;2.38;;;0.80;;
20482;SDS011;10400;53.198;6.592;2023-07-31T11:58:48;2.22;;;0.90;;
20482;SDS011;10400;53.198;6.592;2023-07-31T12:01:17;1.95;;;0.80;;
20482;SDS011;10400;53.198;6.592;2023-07-31T12:03:45;2.17;;;0.68;;
20482;SDS011;10400;53.198;6.592;2023-07-31T12:06:11;1.75;;;0.70;;
20482;SDS011;10400;53.198;6.592;2023-07-31T12:08:37;1.85;;;0.90;;
20482;SDS011;10400;53.198;6.592;2023-07-31T12:11:03;0.95;;;0.75;;
20482;SDS011;10400;53.198;6.592;2023-07-31T12:13:31;1.48;;;0.77;;
20482;SDS011;10400;53.198;6.592;2023-07-31T12:15:59;1.00;;;0.60;;
20482;SDS011;10400;53.198;6.592;2023-07-31T12:18:28;0.63;;;0.50;;
20482;SDS011;10400;53.198;6.592;2023-07-31T12:20:58;3.90;;;0.70;;
20482;SDS011;10400;53.198;6.592;2023-07-31T12:23:30;1.77;;;0.70;;
20482;SDS011;10400;53.198;6.592;2023-07-31T12:26:01;0.63;;;0.60;;
20482;SDS011;10400;53.198;6.592;2023-07-31T12:31:03;1.42;;;0.63;;
20482;SDS011;10400;53.198;6.592;2023-07-31T12:33:30;2.70;;;1.05;;
20482;SDS011;10400;53.198;6.592;2023-07-31T12:35:57;1.75;;;0.60;;
20482;SDS011;10400;53.198;6.592;2023-07-31T12:38:25;1.92;;;0.70;;
20482;SDS011;10400;53.198;6.592;2023-07-31T12:40:51;2.03;;;0.70;;
20482;SDS011;10400;53.198;6.592;2023-07-31T12:43:16;2.35;;;0.80;;
20482;SDS011;10400;53.198;6.592;2023-07-31T12:45:42;1.92;;;1.10;;
20482;SDS011;10400;53.198;6.592;2023-07-31T12:48:08;2.60;;;0.80;;
20482;SDS011;10400;53.198;6.592;2023-07-31T12:50:33;3.03;;;1.13;;
20482;SDS011;10400;53.198;6.592;2023-07-31T12:53:01;1.75;;;0.90;;
20482;SDS011;10400;53.198;6.592;2023-07-31T12:55:28;1.80;;;1.00;;
20482;SDS011;10400;53.198;6.592;2023-07-31T12:57:55;2.33;;;0.80;;
20482;SDS011;10400;53.198;6.592;2023-07-31T13:00:21;2.20;;;1.00;;
20482;SDS011;10400;53.198;6.592;2023-07-31T13:02:47;3.38;;;1.20;;
20482;SDS011;10400;53.198;6.592;2023-07-31T13:05:13;1.50;;;1.05;;
20482;SDS011;10400;53.198;6.592;2023-07-31T13:07:39;4.88;;;1.05;;
20482;SDS011;10400;53.198;6.592;2023-07-31T13:10:05;5.53;;;1.60;;
20482;SDS011;10400;53.198;6.592;2023-07-31T13:12:31;3.50;;;1.50;;
20482;SDS011;10400;53.198;6.592;2023-07-31T13:14:57;5.22;;;1.77;;
20482;SDS011;10400;53.198;6.592;2023-07-31T13:17:23;7.07;;;1.65;;
20482;SDS011;10400;53.198;6.592;2023-07-31T13:19:48;8.95;;;1.77;;
20482;SDS011;10400;53.198;6.592;2023-07-31T13:22:14;6.18;;;1.77;;
20482;SDS011;10400;53.198;6.592;2023-07-31T13:24:40;5.85;;;1.90;;
20482;SDS011;10400;53.198;6.592;2023-07-31T13:27:06;8.02;;;2.03;;
20482;SDS011;10400;53.198;6.592;2023-07-31T13:29:32;8.18;;;2.05;;
20482;SDS011;10400;53.198;6.592;2023-07-31T13:31:58;7.35;;;1.83;;
20482;SDS011;10400;53.198;6.592;2023-07-31T13:34:23;8.57;;;2.03;;
20482;SDS011;10400;53.198;6.592;2023-07-31T13:36:49;9.63;;;2.45;;
20482;SDS011;10400;53.198;6.592;2023-07-31T13:39:15;9.30;;;2.25;;
20482;SDS011;10400;53.198;6.592;2023-07-31T13:41:41;5.20;;;2.05;;
20482;SDS011;10400;53.198;6.592;2023-07-31T13:44:07;7.45;;;2.30;;
20482;SDS011;10400;53.198;6.592;2023-07-31T13:46:32;6.03;;;2.00;;
20482;SDS011;10400;53.198;6.592;2023-07-31T13:48:58;10.32;;;2.95;;
20482;SDS011;10400;53.198;6.592;2023-07-31T13:51:24;7.07;;;2.15;;
20482;SDS011;10400;53.198;6.592;2023-07-31T13:53:50;11.20;;;2.55;;
20482;SDS011;10400;53.198;6.592;2023-07-31T13:56:16;7.38;;;2.25;;
20482;SDS011;10400;53.198;6.592;2023-07-31T13:58:42;7.60;;;2.42;;
20482;SDS011;10400;53.198;6.592;2023-07-31T14:01:08;10.52;;;2.60;;
20482;SDS011;10400;53.198;6.592;2023-07-31T14:03:33;9.40;;;1.85;;
20482;SDS011;10400;53.198;6.592;2023-07-31T14:05:59;8.23;;;2.55;;
20482;SDS011;10400;53.198;6.592;2023-07-31T14:08:25;6.53;;;2.20;;
20482;SDS011;10400;53.198;6.592;2023-07-31T14:10:51;10.73;;;2.70;;
20482;SDS011;10400;53.198;6.592;2023-07-31T14:13:16;10.25;;;2.70;;
20482;SDS011;10400;53.198;6.592;2023-07-31T14:15:42;7.30;;;2.30;;
20482;SDS011;10400;53.198;6.592;2023-07-31T14:18:08;6.38;;;2.60;;
20482;SDS011;10400;53.198;6.592;2023-07-31T14:20:34;7.40;;;2.53;;
20482;SDS011;10400;53.198;6.592;2023-07-31T14:23:00;6.75;;;2.22;;
20482;SDS011;10400;53.198;6.592;2023-07-31T14:25:26;7.90;;;2.40;;
20482;SDS011;10400;53.198;6.592;2023-07-31T14:27:52;6.18;;;2.42;;
20482;SDS011;10400;53.198;6.592;2023-07-31T14:30:18;7.78;;;2.60;;
20482;SDS011;10400;53.198;6.592;2023-07-31T14:32:43;7.22;;;2.45;;
20482;SDS011;10400;53.198;6.592;2023-07-31T14:35:09;5.63;;;2.60;;
20482;SDS011;10400;53.198;6.592;2023-07-31T14:37:42;7.45;;;3.10;;
20482;SDS011;10400;53.198;6.592;2023-07-31T14:40:09;7.68;;;2.25;;
20482;SDS011;10400;53.198;6.592;2023-07-31T14:42:36;6.45;;;2.22;;
20482;SDS011;10400;53.198;6.592;2023-07-31T14:45:04;8.82;;;2.63;;
20482;SDS011;10400;53.198;6.592;2023-07-31T14:47:30;5.60;;;2.47;;
20482;SDS011;10400;53.198;6.592;2023-07-31T14:49:57;9.27;;;2.95;;
20482;SDS011;10400;53.198;6.592;2023-07-31T14:52:22;6.53;;;2.60;;
20482;SDS011;10400;53.198;6.592;2023-07-31T14:54:48;8.05;;;3.08;;
20482;SDS011;10400;53.198;6.592;2023-07-31T14:57:14;10.93;;;3.30;;
20482;SDS011;10400;53.198;6.592;2023-07-31T14:59:40;10.57;;;3.13;;
20482;SDS011;10400;53.198;6.592;2023-07-31T15:02:06;8.82;;;2.92;;